sensor_id;sensor_type;location;lat;lon;timestamp;pressure;altitude;pressure_sealevel;temperature;humidity
44131;BME280;29792;48.726;9.248;2022-08-25T00:00:45;97032.88;;;21.66;66.35
44131;BME280;29792;48.726;9.248;2022-08-25T00:03:11;97027.28;;;21.62;66.55
44131;BME280;29792;48.726;9.248;2022-08-25T00:05:37;97025.66;;;21.61;66.38
44131;BME280;29792;48.726;9.248;2022-08-25T00:08:03;97025.03;;;21.59;66.42
44131;BME280;29792;48.726;9.248;2022-08-25T00:10:32;97023.41;;;21.58;66.54
44131;BME280;29792;48.726;9.248;2022-08-25T00:12:58;97029.63;;;21.57;66.65
44131;BME280;29792;48.726;9.248;2022-08-25T00:15:23;97027.41;;;21.54;66.97
44131;BME280;29792;48.726;9.248;2022-08-25T00:17:48;97028.41;;;21.53;67.11
44131;BME280;29792;48.726;9.248;2022-08-25T00:20:15;97024.38;;;21.51;67.06
44131;BME280;29792;48.726;9.248;2022-08-25T00:22:40;97023.75;;;21.49;67.37
44131;BME280;29792;48.726;9.248;2022-08-25T00:25:06;97024.56;;;21.49;67.16
44131;BME280;29792;48.726;9.248;2022-08-25T00:27:32;97022.75;;;21.50;67.39
44131;BME280;29792;48.726;9.248;2022-08-25T00:29:57;97018.75;;;21.47;67.37
44131;BME280;29792;48.726;9.248;2022-08-25T00:32:22;97026.75;;;21.46;67.58
44131;BME280;29792;48.726;9.248;2022-08-25T00:34:49;97020.75;;;21.45;67.46
44131;BME280;29792;48.726;9.248;2022-08-25T00:37:14;97018.31;;;21.44;67.57
44131;BME280;29792;48.726;9.248;2022-08-25T00:39:40;97021.91;;;21.43;67.67
44131;BME280;29792;48.726;9.248;2022-08-25T00:42:07;97014.09;;;21.43;67.61
44131;BME280;29792;48.726;9.248;2022-08-25T00:44:32;97022.09;;;21.41;68.06
44131;BME280;29792;48.726;9.248;2022-08-25T00:47:00;97022.31;;;21.40;67.76
44131;BME280;29792;48.726;9.248;2022-08-25T00:49:35;97018.09;;;21.39;68.20
44131;BME280;29792;48.726;9.248;2022-08-25T00:52:10;97016.47;;;21.38;68.29
44131;BME280;29792;48.726;9.248;2022-08-25T00:54:58;97016.66;;;21.36;68.47
44131;BME280;29792;48.726;9.248;2022-08-25T00:57:28;97015.22;;;21.33;68.65
44131;BME280;29792;48.726;9.248;2022-08-25T00:59:54;97015.63;;;21.30;68.53
44131;BME280;29792;48.726;9.248;2022-08-25T01:02:19;97012.78;;;21.25;68.87
44131;BME280;29792;48.726;9.248;2022-08-25T01:04:46;97011.56;;;21.21;68.74
44131;BME280;29792;48.726;9.248;2022-08-25T01:07:12;97012.09;;;21.17;68.92
44131;BME280;29792;48.726;9.248;2022-08-25T01:09:38;97006.44;;;21.13;69.08
44131;BME280;29792;48.726;9.248;2022-08-25T01:12:04;96994.78;;;21.09;69.16
44131;BME280;29792;48.726;9.248;2022-08-25T01:14:31;96993.56;;;21.05;69.73
44131;BME280;29792;48.726;9.248;2022-08-25T01:16:57;96994.91;;;21.01;69.86
44131;BME280;29792;48.726;9.248;2022-08-25T01:19:24;96989.28;;;20.98;69.75
44131;BME280;29792;48.726;9.248;2022-08-25T01:21:51;96996.50;;;20.95;70.14
44131;BME280;29792;48.726;9.248;2022-08-25T01:24:27;96996.66;;;20.94;70.25
44131;BME280;29792;48.726;9.248;2022-08-25T01:26:55;97002.88;;;20.93;70.31
44131;BME280;29792;48.726;9.248;2022-08-25T01:29:20;96994.47;;;20.91;70.63
44131;BME280;29792;48.726;9.248;2022-08-25T01:31:48;97001.47;;;20.90;70.63
44131;BME280;29792;48.726;9.248;2022-08-25T01:34:14;97001.66;;;20.89;70.85
44131;BME280;29792;48.726;9.248;2022-08-25T01:36:42;97009.47;;;20.89;71.14
44131;BME280;29792;48.726;9.248;2022-08-25T01:39:07;97000.22;;;20.86;70.89
44131;BME280;29792;48.726;9.248;2022-08-25T01:43:59;96998.59;;;20.85;71.28
44131;BME280;29792;48.726;9.248;2022-08-25T01:46:25;96997.78;;;20.85;71.34
44131;BME280;29792;48.726;9.248;2022-08-25T01:48:50;97001.19;;;20.85;71.55
44131;BME280;29792;48.726;9.248;2022-08-25T01:51:19;97003.81;;;20.85;71.50
44131;BME280;29792;48.726;9.248;2022-08-25T01:53:47;97002.00;;;20.86;71.43
44131;BME280;29792;48.726;9.248;2022-08-25T01:56:14;97002.81;;;20.86;71.69
44131;BME280;29792;48.726;9.248;2022-08-25T01:58:45;96995.63;;;20.88;71.55
44131;BME280;29792;48.726;9.248;2022-08-25T02:01:23;96998.22;;;20.88;71.98
44131;BME280;29792;48.726;9.248;2022-08-25T02:03:51;97000.66;;;20.90;71.73
44131;BME280;29792;48.726;9.248;2022-08-25T02:06:24;96998.06;;;20.90;71.85
44131;BME280;29792;48.726;9.248;2022-08-25T02:08:54;96995.63;;;20.88;71.66
44131;BME280;29792;48.726;9.248;2022-08-25T02:11:20;96998.22;;;20.88;71.68
44131;BME280;29792;48.726;9.248;2022-08-25T02:13:47;96999.22;;;20.87;71.87
44131;BME280;29792;48.726;9.248;2022-08-25T02:16:20;97001.03;;;20.87;71.83
44131;BME280;29792;48.726;9.248;2022-08-25T02:18:46;97003.81;;;20.85;71.89
44131;BME280;29792;48.726;9.248;2022-08-25T02:21:13;96997.78;;;20.85;71.87
44131;BME280;29792;48.726;9.248;2022-08-25T02:23:39;96998.00;;;20.83;72.23
44131;BME280;29792;48.726;9.248;2022-08-25T02:26:04;96996.38;;;20.82;71.93
44131;BME280;29792;48.726;9.248;2022-08-25T02:28:29;96991.34;;;20.81;72.24
44131;BME280;29792;48.726;9.248;2022-08-25T02:30:55;96994.78;;;20.81;72.15
44131;BME280;29792;48.726;9.248;2022-08-25T02:33:20;96991.53;;;20.79;71.97
44131;BME280;29792;48.726;9.248;2022-08-25T02:35:46;96989.13;;;20.78;72.60
44131;BME280;29792;48.726;9.248;2022-08-25T02:38:12;96991.72;;;20.78;72.40
44131;BME280;29792;48.726;9.248;2022-08-25T02:40:37;96991.09;;;20.76;72.41
44131;BME280;29792;48.726;9.248;2022-08-25T02:43:03;96994.72;;;20.75;72.63
44131;BME280;29792;48.726;9.248;2022-08-25T02:45:28;96987.09;;;20.73;72.73
44131;BME280;29792;48.726;9.248;2022-08-25T02:47:53;96985.66;;;20.71;73.04
44131;BME280;29792;48.726;9.248;2022-08-25T02:50:19;96987.63;;;20.69;73.28
44131;BME280;29792;48.726;9.248;2022-08-25T02:52:44;96992.44;;;20.65;73.39
44131;BME280;29792;48.726;9.248;2022-08-25T02:55:11;96989.56;;;20.60;73.10
44131;BME280;29792;48.726;9.248;2022-08-25T02:57:38;96994.28;;;20.50;72.90
44131;BME280;29792;48.726;9.248;2022-08-25T03:00:04;96992.78;;;20.41;73.66
44131;BME280;29792;48.726;9.248;2022-08-25T03:02:30;97002.31;;;20.34;73.87
44131;BME280;29792;48.726;9.248;2022-08-25T03:04:56;96992.81;;;20.26;73.67
44131;BME280;29792;48.726;9.248;2022-08-25T03:07:22;96996.75;;;20.22;74.37
44131;BME280;29792;48.726;9.248;2022-08-25T03:09:47;96991.91;;;20.19;73.84
44131;BME280;29792;48.726;9.248;2022-08-25T03:12:13;96991.47;;;20.15;74.26
44131;BME280;29792;48.726;9.248;2022-08-25T03:14:39;96986.81;;;20.11;74.74
44131;BME280;29792;48.726;9.248;2022-08-25T03:17:06;96988.19;;;20.07;74.97
44131;BME280;29792;48.726;9.248;2022-08-25T03:19:31;96980.13;;;20.02;75.05
44131;BME280;29792;48.726;9.248;2022-08-25T03:21:57;96992.03;;;19.96;75.21
44131;BME280;29792;48.726;9.248;2022-08-25T03:24:23;96983.19;;;19.91;75.25
44131;BME280;29792;48.726;9.248;2022-08-25T03:26:49;96988.03;;;19.79;75.67
44131;BME280;29792;48.726;9.248;2022-08-25T03:29:25;96993.31;;;19.71;75.80
44131;BME280;29792;48.726;9.248;2022-08-25T03:31:52;96983.81;;;19.63;76.08
44131;BME280;29792;48.726;9.248;2022-08-25T03:34:19;96993.78;;;19.60;76.62
44131;BME280;29792;48.726;9.248;2022-08-25T03:36:46;96990.09;;;19.54;77.03
44131;BME280;29792;48.726;9.248;2022-08-25T03:39:12;96982.69;;;19.51;77.43
44131;BME280;29792;48.726;9.248;2022-08-25T03:41:38;96990.47;;;19.51;77.78
44131;BME280;29792;48.726;9.248;2022-08-25T03:44:05;96987.88;;;19.51;77.79
44131;BME280;29792;48.726;9.248;2022-08-25T03:46:38;96987.69;;;19.53;77.81
44131;BME280;29792;48.726;9.248;2022-08-25T03:49:05;96985.72;;;19.55;77.95
44131;BME280;29792;48.726;9.248;2022-08-25T03:51:33;96984.72;;;19.56;77.85
44131;BME280;29792;48.726;9.248;2022-08-25T03:54:00;96976.75;;;19.57;77.56
44131;BME280;29792;48.726;9.248;2022-08-25T03:56:26;96978.19;;;19.60;77.64
44131;BME280;29792;48.726;9.248;2022-08-25T03:58:52;96973.81;;;19.60;77.97
44131;BME280;29792;48.726;9.248;2022-08-25T04:01:17;96970.22;;;19.61;77.55
44131;BME280;29792;48.726;9.248;2022-08-25T04:03:43;96974.78;;;19.59;77.88
44131;BME280;29792;48.726;9.248;2022-08-25T04:06:08;96972.53;;;19.56;78.00
44131;BME280;29792;48.726;9.248;2022-08-25T04:08:35;96968.53;;;19.54;78.20
44131;BME280;29792;48.726;9.248;2022-08-25T04:11:05;96971.31;;;19.52;78.64
44131;BME280;29792;48.726;9.248;2022-08-25T04:13:31;96971.31;;;19.52;78.17
44131;BME280;29792;48.726;9.248;2022-08-25T04:15:56;96972.63;;;19.48;78.54
44131;BME280;29792;48.726;9.248;2022-08-25T04:18:21;96967.94;;;19.43;78.62
44131;BME280;29792;48.726;9.248;2022-08-25T04:20:46;96970.91;;;19.40;78.95
44131;BME280;29792;48.726;9.248;2022-08-25T04:23:12;96966.06;;;19.37;79.63
44131;BME280;29792;48.726;9.248;2022-08-25T04:25:39;96969.84;;;19.35;79.54
44131;BME280;29792;48.726;9.248;2022-08-25T04:28:07;96978.78;;;19.32;79.61
44131;BME280;29792;48.726;9.248;2022-08-25T04:30:33;96980.94;;;19.29;79.50
44131;BME280;29792;48.726;9.248;2022-08-25T04:32:58;96983.72;;;19.27;80.04
44131;BME280;29792;48.726;9.248;2022-08-25T04:35:23;96975.13;;;19.27;80.17
44131;BME280;29792;48.726;9.248;2022-08-25T04:37:49;96981.13;;;19.27;80.02
44131;BME280;29792;48.726;9.248;2022-08-25T04:40:14;96976.72;;;19.28;80.46
44131;BME280;29792;48.726;9.248;2022-08-25T04:42:39;96978.50;;;19.27;80.54
44131;BME280;29792;48.726;9.248;2022-08-25T04:45:05;96978.34;;;19.29;80.91
44131;BME280;29792;48.726;9.248;2022-08-25T04:47:30;96977.34;;;19.30;80.50
44131;BME280;29792;48.726;9.248;2022-08-25T04:50:00;96985.13;;;19.30;80.76
44131;BME280;29792;48.726;9.248;2022-08-25T04:52:25;96990.97;;;19.32;80.92
44131;BME280;29792;48.726;9.248;2022-08-25T04:54:50;96978.94;;;19.31;81.05
44131;BME280;29792;48.726;9.248;2022-08-25T04:57:15;96977.97;;;19.32;81.21
44131;BME280;29792;48.726;9.248;2022-08-25T04:59:41;96977.97;;;19.32;81.33
44131;BME280;29792;48.726;9.248;2022-08-25T05:02:06;96980.56;;;19.32;81.21
44131;BME280;29792;48.726;9.248;2022-08-25T05:04:33;96988.34;;;19.32;81.01
44131;BME280;29792;48.726;9.248;2022-08-25T05:06:59;96988.34;;;19.32;81.10
44131;BME280;29792;48.726;9.248;2022-08-25T05:09:25;96986.41;;;19.34;80.88
44131;BME280;29792;48.726;9.248;2022-08-25T05:11:51;96990.78;;;19.33;81.22
44131;BME280;29792;48.726;9.248;2022-08-25T05:14:16;96989.81;;;19.34;80.94
44131;BME280;29792;48.726;9.248;2022-08-25T05:16:46;96986.06;;;19.37;80.94
44131;BME280;29792;48.726;9.248;2022-08-25T05:19:11;96972.88;;;19.38;80.80
44131;BME280;29792;48.726;9.248;2022-08-25T05:21:36;96974.94;;;19.43;80.87
44131;BME280;29792;48.726;9.248;2022-08-25T05:24:02;96977.81;;;19.48;80.99
44131;BME280;29792;48.726;9.248;2022-08-25T05:26:29;96975.69;;;19.52;81.37
44131;BME280;29792;48.726;9.248;2022-08-25T05:28:56;96976.13;;;19.55;81.03
44131;BME280;29792;48.726;9.248;2022-08-25T05:31:23;96967.81;;;19.60;81.33
44131;BME280;29792;48.726;9.248;2022-08-25T05:33:50;96972.44;;;19.64;81.51
44131;BME280;29792;48.726;9.248;2022-08-25T05:36:16;96972.91;;;19.68;80.98
44131;BME280;29792;48.726;9.248;2022-08-25T05:38:42;96967.31;;;19.71;81.16
44131;BME280;29792;48.726;9.248;2022-08-25T05:41:17;96970.56;;;19.73;81.30
44131;BME280;29792;48.726;9.248;2022-08-25T05:43:45;96978.44;;;19.79;81.16
44131;BME280;29792;48.726;9.248;2022-08-25T05:46:12;96970.09;;;19.84;81.10
44131;BME280;29792;48.726;9.248;2022-08-25T05:48:38;96965.34;;;19.88;81.01
44131;BME280;29792;48.726;9.248;2022-08-25T05:51:05;96964.81;;;19.92;80.90
44131;BME280;29792;48.726;9.248;2022-08-25T05:53:31;96961.66;;;19.97;80.96
44131;BME280;29792;48.726;9.248;2022-08-25T05:55:58;96962.72;;;20.02;80.87
44131;BME280;29792;48.726;9.248;2022-08-25T05:58:25;96954.38;;;20.07;80.75
44131;BME280;29792;48.726;9.248;2022-08-25T06:00:52;96961.44;;;20.13;80.63
44131;BME280;29792;48.726;9.248;2022-08-25T06:03:17;96951.28;;;20.18;80.54
44131;BME280;29792;48.726;9.248;2022-08-25T06:05:43;96962.75;;;20.24;80.67
44131;BME280;29792;48.726;9.248;2022-08-25T06:08:09;96950.16;;;20.27;80.71
44131;BME280;29792;48.726;9.248;2022-08-25T06:10:35;96954.81;;;20.32;80.26
44131;BME280;29792;48.726;9.248;2022-08-25T06:13:01;96966.94;;;20.39;80.08
44131;BME280;29792;48.726;9.248;2022-08-25T06:15:27;96965.38;;;20.45;80.14
44131;BME280;29792;48.726;9.248;2022-08-25T06:17:53;96961.25;;;20.50;79.47
44131;BME280;29792;48.726;9.248;2022-08-25T06:20:23;96963.09;;;20.56;79.93
44131;BME280;29792;48.726;9.248;2022-08-25T06:22:49;96961.53;;;20.62;79.99
44131;BME280;29792;48.726;9.248;2022-08-25T06:25:17;96962.78;;;20.66;80.10
44131;BME280;29792;48.726;9.248;2022-08-25T06:27:44;96971.03;;;20.70;80.25
44131;BME280;29792;48.726;9.248;2022-08-25T06:30:13;96969.66;;;20.74;79.99
44131;BME280;29792;48.726;9.248;2022-08-25T06:32:40;96964.88;;;20.77;80.10
44131;BME280;29792;48.726;9.248;2022-08-25T06:35:08;96967.31;;;20.79;80.07
44131;BME280;29792;48.726;9.248;2022-08-25T06:37:34;96959.13;;;20.82;79.91
44131;BME280;29792;48.726;9.248;2022-08-25T06:40:00;96958.53;;;20.86;79.56
44131;BME280;29792;48.726;9.248;2022-08-25T06:42:25;96963.22;;;20.91;79.83
44131;BME280;29792;48.726;9.248;2022-08-25T06:44:51;96961.81;;;20.95;79.58
44131;BME280;29792;48.726;9.248;2022-08-25T06:47:16;96964.06;;;20.98;79.27
44131;BME280;29792;48.726;9.248;2022-08-25T06:49:43;96956.66;;;21.02;79.66
44131;BME280;29792;48.726;9.248;2022-08-25T06:52:09;96954.31;;;21.07;78.95
44131;BME280;29792;48.726;9.248;2022-08-25T06:54:34;96954.34;;;21.13;78.88
44131;BME280;29792;48.726;9.248;2022-08-25T06:56:59;96954.22;;;21.21;78.89
44131;BME280;29792;48.726;9.248;2022-08-25T06:59:25;96954.44;;;21.26;78.97
44131;BME280;29792;48.726;9.248;2022-08-25T07:01:51;96959.69;;;21.33;78.75
44131;BME280;29792;48.726;9.248;2022-08-25T07:04:16;96956.13;;;21.41;78.47
44131;BME280;29792;48.726;9.248;2022-08-25T07:06:42;96940.16;;;21.50;78.48
44131;BME280;29792;48.726;9.248;2022-08-25T07:09:09;96943.03;;;21.62;77.69
44131;BME280;29792;48.726;9.248;2022-08-25T07:11:34;96953.09;;;21.72;77.33
44131;BME280;29792;48.726;9.248;2022-08-25T07:14:02;96950.09;;;21.81;77.98
44131;BME280;29792;48.726;9.248;2022-08-25T07:16:29;96946.16;;;21.92;77.39
44131;BME280;29792;48.726;9.248;2022-08-25T07:18:55;96946.81;;;22.00;77.23
44131;BME280;29792;48.726;9.248;2022-08-25T07:21:22;96938.00;;;22.08;76.62
44131;BME280;29792;48.726;9.248;2022-08-25T07:23:48;96950.47;;;22.19;75.89
44131;BME280;29792;48.726;9.248;2022-08-25T07:26:23;96949.09;;;22.30;75.49
44131;BME280;29792;48.726;9.248;2022-08-25T07:28:49;96952.13;;;22.40;75.78
44131;BME280;29792;48.726;9.248;2022-08-25T07:31:15;96940.28;;;22.51;75.42
44131;BME280;29792;48.726;9.248;2022-08-25T07:33:41;96940.50;;;22.62;74.45
44131;BME280;29792;48.726;9.248;2022-08-25T07:36:24;96938.13;;;22.80;74.31
44131;BME280;29792;48.726;9.248;2022-08-25T07:38:50;96931.47;;;22.98;74.19
44131;BME280;29792;48.726;9.248;2022-08-25T07:41:15;96935.47;;;23.20;72.69
44131;BME280;29792;48.726;9.248;2022-08-25T07:43:41;96940.03;;;23.44;72.89
44131;BME280;29792;48.726;9.248;2022-08-25T07:46:06;96936.19;;;23.67;71.50
44131;BME280;29792;48.726;9.248;2022-08-25T07:48:31;96936.91;;;23.87;69.79
44131;BME280;29792;48.726;9.248;2022-08-25T07:50:56;96939.44;;;24.07;70.13
44131;BME280;29792;48.726;9.248;2022-08-25T07:53:22;96946.19;;;24.27;69.46
44131;BME280;29792;48.726;9.248;2022-08-25T07:55:47;96939.38;;;24.51;69.07
44131;BME280;29792;48.726;9.248;2022-08-25T07:58:12;96947.41;;;24.81;67.46
44131;BME280;29792;48.726;9.248;2022-08-25T08:00:38;96942.91;;;25.20;65.73
44131;BME280;29792;48.726;9.248;2022-08-25T08:03:07;96934.56;;;25.66;63.71
44131;BME280;29792;48.726;9.248;2022-08-25T08:05:33;96938.19;;;26.13;62.13
44131;BME280;29792;48.726;9.248;2022-08-25T08:07:59;96939.94;;;26.49;60.60
44131;BME280;29792;48.726;9.248;2022-08-25T08:10:24;96935.97;;;26.70;59.03
44131;BME280;29792;48.726;9.248;2022-08-25T08:12:51;96938.97;;;26.85;59.54
44131;BME280;29792;48.726;9.248;2022-08-25T08:15:17;96937.31;;;26.90;58.46
44131;BME280;29792;48.726;9.248;2022-08-25T08:17:43;96937.50;;;26.89;59.04
44131;BME280;29792;48.726;9.248;2022-08-25T08:20:09;96943.44;;;26.84;58.92
44131;BME280;29792;48.726;9.248;2022-08-25T08:22:36;96934.03;;;26.77;58.58
44131;BME280;29792;48.726;9.248;2022-08-25T08:25:03;96936.66;;;26.77;58.41
44131;BME280;29792;48.726;9.248;2022-08-25T08:27:29;96940.56;;;26.74;58.61
44131;BME280;29792;48.726;9.248;2022-08-25T08:29:54;96941.00;;;26.71;58.84
44131;BME280;29792;48.726;9.248;2022-08-25T08:32:20;96933.50;;;26.75;59.18
44131;BME280;29792;48.726;9.248;2022-08-25T08:34:45;96932.00;;;26.79;58.78
44131;BME280;29792;48.726;9.248;2022-08-25T08:37:12;96935.78;;;26.83;58.87
44131;BME280;29792;48.726;9.248;2022-08-25T08:39:37;96938.91;;;26.91;59.02
44131;BME280;29792;48.726;9.248;2022-08-25T08:44:51;96931.69;;;27.10;58.74
44131;BME280;29792;48.726;9.248;2022-08-25T08:47:36;96930.31;;;27.19;58.00
44131;BME280;29792;48.726;9.248;2022-08-25T08:52:49;96922.97;;;27.45;56.71
44131;BME280;29792;48.726;9.248;2022-08-25T08:55:36;96922.03;;;27.51;56.04
44131;BME280;29792;48.726;9.248;2022-08-25T08:58:07;96922.75;;;27.58;57.22
44131;BME280;29792;48.726;9.248;2022-08-25T09:00:39;96921.56;;;27.65;57.39
44131;BME280;29792;48.726;9.248;2022-08-25T09:03:10;96918.47;;;27.80;56.82
44131;BME280;29792;48.726;9.248;2022-08-25T09:05:45;96915.53;;;27.93;56.18
44131;BME280;29792;48.726;9.248;2022-08-25T09:08:12;96924.75;;;28.07;56.01
44131;BME280;29792;48.726;9.248;2022-08-25T09:16:22;96914.22;;;28.19;54.35
44131;BME280;29792;48.726;9.248;2022-08-25T09:19:27;96914.53;;;28.23;53.85
44131;BME280;29792;48.726;9.248;2022-08-25T09:22:08;96912.00;;;28.28;53.18
44131;BME280;29792;48.726;9.248;2022-08-25T09:25:02;96912.00;;;28.28;52.66
44131;BME280;29792;48.726;9.248;2022-08-25T09:30:58;96908.66;;;28.49;52.88
44131;BME280;29792;48.726;9.248;2022-08-25T09:33:25;96906.34;;;28.53;51.39
44131;BME280;29792;48.726;9.248;2022-08-25T09:35:53;96908.88;;;28.47;50.44
44131;BME280;29792;48.726;9.248;2022-08-25T09:38:20;96901.13;;;28.41;51.33
44131;BME280;29792;48.726;9.248;2022-08-25T09:40:48;96908.00;;;28.42;51.75
44131;BME280;29792;48.726;9.248;2022-08-25T09:48:30;96907.69;;;28.55;51.92
44131;BME280;29792;48.726;9.248;2022-08-25T09:51:24;96891.41;;;28.58;50.57
44131;BME280;29792;48.726;9.248;2022-08-25T09:53:56;96895.41;;;28.61;50.27
44131;BME280;29792;48.726;9.248;2022-08-25T09:56:26;96902.81;;;28.64;50.93
44131;BME280;29792;48.726;9.248;2022-08-25T09:58:53;96896.09;;;28.73;51.18
44131;BME280;29792;48.726;9.248;2022-08-25T10:01:22;96886.47;;;28.78;51.26
44131;BME280;29792;48.726;9.248;2022-08-25T10:04:10;96888.22;;;28.90;50.34
44131;BME280;29792;48.726;9.248;2022-08-25T10:06:43;96886.03;;;29.03;50.35
44131;BME280;29792;48.726;9.248;2022-08-25T10:09:13;96883.53;;;29.13;50.55
44131;BME280;29792;48.726;9.248;2022-08-25T10:11:47;96883.91;;;29.22;50.40
44131;BME280;29792;48.726;9.248;2022-08-25T10:14:26;96875.00;;;29.28;50.08
44131;BME280;29792;48.726;9.248;2022-08-25T10:17:11;96878.53;;;29.34;50.40
44131;BME280;29792;48.726;9.248;2022-08-25T10:19:36;96872.78;;;29.37;48.68
44131;BME280;29792;48.726;9.248;2022-08-25T10:22:03;96864.28;;;29.35;49.18
44131;BME280;29792;48.726;9.248;2022-08-25T10:24:30;96874.63;;;29.36;49.25
44131;BME280;29792;48.726;9.248;2022-08-25T10:32:35;96865.53;;;29.49;48.94
44131;BME280;29792;48.726;9.248;2022-08-25T10:35:11;96851.31;;;29.50;47.96
44131;BME280;29792;48.726;9.248;2022-08-25T10:46:00;96852.06;;;29.72;48.03
44131;BME280;29792;48.726;9.248;2022-08-25T10:51:52;96837.81;;;29.73;47.33
44131;BME280;29792;48.726;9.248;2022-08-25T10:54:28;96835.38;;;29.67;46.57
44131;BME280;29792;48.726;9.248;2022-08-25T10:57:14;96837.72;;;29.63;46.85
44131;BME280;29792;48.726;9.248;2022-08-25T11:00:12;96830.28;;;29.60;46.32
44131;BME280;29792;48.726;9.248;2022-08-25T11:03:00;96822.31;;;29.55;46.70
44131;BME280;29792;48.726;9.248;2022-08-25T11:05:50;96826.50;;;29.51;46.51
44131;BME280;29792;48.726;9.248;2022-08-25T11:08:39;96820.09;;;29.47;46.30
44131;BME280;29792;48.726;9.248;2022-08-25T11:11:27;96822.69;;;29.42;46.46
44131;BME280;29792;48.726;9.248;2022-08-25T11:13:59;96824.63;;;29.51;47.14
44131;BME280;29792;48.726;9.248;2022-08-25T11:16:36;96825.44;;;29.52;47.03
44131;BME280;29792;48.726;9.248;2022-08-25T11:19:24;96821.50;;;29.54;47.06
44131;BME280;29792;48.726;9.248;2022-08-25T11:24:46;96819.97;;;29.58;47.03
44131;BME280;29792;48.726;9.248;2022-08-25T11:27:22;96817.88;;;29.60;46.70
44131;BME280;29792;48.726;9.248;2022-08-25T11:29:57;96803.50;;;29.51;47.14
44131;BME280;29792;48.726;9.248;2022-08-25T11:32:23;96801.66;;;29.52;46.90
44131;BME280;29792;48.726;9.248;2022-08-25T11:34:49;96796.66;;;29.50;46.24
44131;BME280;29792;48.726;9.248;2022-08-25T11:37:24;96794.84;;;29.56;47.60
44131;BME280;29792;48.726;9.248;2022-08-25T11:45:45;96797.41;;;29.73;46.51
44131;BME280;29792;48.726;9.248;2022-08-25T11:48:21;96799.28;;;29.77;46.12
44131;BME280;29792;48.726;9.248;2022-08-25T11:51:03;96801.19;;;29.82;46.26
44131;BME280;29792;48.726;9.248;2022-08-25T11:53:35;96795.38;;;29.85;46.83
44131;BME280;29792;48.726;9.248;2022-08-25T11:56:04;96790.41;;;29.88;46.95
44131;BME280;29792;48.726;9.248;2022-08-25T11:58:45;96788.16;;;29.97;46.82
44131;BME280;29792;48.726;9.248;2022-08-25T12:17:42;96784.16;;;29.94;45.80
44131;BME280;29792;48.726;9.248;2022-08-25T12:20:08;96783.41;;;29.99;44.60
44131;BME280;29792;48.726;9.248;2022-08-25T12:25:26;96781.13;;;29.86;46.08
44131;BME280;29792;48.726;9.248;2022-08-25T12:28:04;96783.53;;;29.87;45.57
44131;BME280;29792;48.726;9.248;2022-08-25T12:30:49;96770.34;;;29.92;45.04
44131;BME280;29792;48.726;9.248;2022-08-25T12:33:55;96769.34;;;29.93;45.62
44131;BME280;29792;48.726;9.248;2022-08-25T12:36:29;96768.59;;;29.98;44.73
44131;BME280;29792;48.726;9.248;2022-08-25T12:39:13;96771.53;;;30.02;45.66
44131;BME280;29792;48.726;9.248;2022-08-25T12:41:53;96767.09;;;30.07;44.84
44131;BME280;29792;48.726;9.248;2022-08-25T12:44:34;96760.50;;;30.10;44.11
44131;BME280;29792;48.726;9.248;2022-08-25T12:49:48;96758.88;;;30.09;44.16
44131;BME280;29792;48.726;9.248;2022-08-25T12:52:23;96769.19;;;30.05;44.61
44131;BME280;29792;48.726;9.248;2022-08-25T12:54:54;96767.34;;;30.06;43.84
44131;BME280;29792;48.726;9.248;2022-08-25T12:57:37;96760.72;;;30.08;45.23
44131;BME280;29792;48.726;9.248;2022-08-25T13:00:22;96758.94;;;30.14;44.29
44131;BME280;29792;48.726;9.248;2022-08-25T13:02:52;96755.59;;;30.23;45.12
44131;BME280;29792;48.726;9.248;2022-08-25T13:11:06;96761.34;;;30.52;44.57
44131;BME280;29792;48.726;9.248;2022-08-25T13:13:57;96765.59;;;30.53;43.57
44131;BME280;29792;48.726;9.248;2022-08-25T13:16:28;96764.41;;;30.39;42.92
44131;BME280;29792;48.726;9.248;2022-08-25T13:18:54;96760.34;;;30.26;43.73
44131;BME280;29792;48.726;9.248;2022-08-25T13:21:37;96757.63;;;30.16;43.75
44131;BME280;29792;48.726;9.248;2022-08-25T13:24:12;96754.97;;;30.11;43.01
44131;BME280;29792;48.726;9.248;2022-08-25T13:26:40;96745.94;;;30.07;43.56
44131;BME280;29792;48.726;9.248;2022-08-25T13:31:32;96729.31;;;30.12;43.66
44131;BME280;29792;48.726;9.248;2022-08-25T13:34:00;96734.38;;;30.18;44.41
44131;BME280;29792;48.726;9.248;2022-08-25T13:36:28;96734.44;;;30.23;43.22
44131;BME280;29792;48.726;9.248;2022-08-25T13:39:21;96728.88;;;30.25;44.73
44131;BME280;29792;48.726;9.248;2022-08-25T13:41:52;96724.38;;;30.25;44.10
44131;BME280;29792;48.726;9.248;2022-08-25T13:44:21;96721.97;;;30.19;43.82
44131;BME280;29792;48.726;9.248;2022-08-25T13:47:04;96729.03;;;30.08;43.07
44131;BME280;29792;48.726;9.248;2022-08-25T13:49:29;96730.56;;;29.99;43.70
44131;BME280;29792;48.726;9.248;2022-08-25T13:51:55;96729.91;;;29.87;43.76
44131;BME280;29792;48.726;9.248;2022-08-25T13:54:35;96722.94;;;29.76;44.33
44131;BME280;29792;48.726;9.248;2022-08-25T13:57:18;96721.84;;;29.72;44.79
44131;BME280;29792;48.726;9.248;2022-08-25T13:59:49;96717.94;;;29.79;44.87
44131;BME280;29792;48.726;9.248;2022-08-25T14:02:45;96711.66;;;29.85;44.21
44131;BME280;29792;48.726;9.248;2022-08-25T14:05:13;96707.75;;;29.93;44.57
44131;BME280;29792;48.726;9.248;2022-08-25T14:07:38;96709.69;;;30.03;43.76
44131;BME280;29792;48.726;9.248;2022-08-25T14:10:07;96710.56;;;30.13;43.43
44131;BME280;29792;48.726;9.248;2022-08-25T14:12:37;96708.25;;;30.22;43.58
44131;BME280;29792;48.726;9.248;2022-08-25T14:17:43;96716.03;;;30.44;43.40
44131;BME280;29792;48.726;9.248;2022-08-25T14:20:22;96713.16;;;30.50;43.76
44131;BME280;29792;48.726;9.248;2022-08-25T14:22:54;96708.75;;;30.56;43.23
44131;BME280;29792;48.726;9.248;2022-08-25T14:25:20;96709.78;;;30.55;42.56
44131;BME280;29792;48.726;9.248;2022-08-25T14:27:54;96707.59;;;30.47;41.68
44131;BME280;29792;48.726;9.248;2022-08-25T14:30:20;96706.50;;;30.38;41.53
44131;BME280;29792;48.726;9.248;2022-08-25T14:32:45;96695.84;;;30.22;41.12